Terminal Aerodrome Forecast
Issued by NWS

Home | Current Version | Previous Version | Text Only | Print | Product List | Glossary On
Versions: 1 2 3 4 5 6 7 8 9 10 11 12
587
FTPA31 PHFO 211735
TAFHJH
TAF
PHJH 211735Z 2118/2218 05011G17KT P6SM VCSH SCT025 BKN045
     FM212000 05017G27KT P6SM FEW025 SCT045
     FM220600 05011KT P6SM FEW025 SCT045
     FM221200 VRB05KT P6SM FEW045
      AMD NOT SKED AFT 220400=

USA.gov is the U.S. government's official web portal to all federal, state and local government web resources and services.